createdAt,value
2018-04-30T00:02:14.747Z,99.90
2018-04-30T00:04:43.127Z,99.90
2018-04-30T00:07:11.372Z,99.90
2018-04-30T00:09:38.843Z,99.90
2018-04-30T00:12:06.331Z,99.90
2018-04-30T00:14:34.577Z,99.90
2018-04-30T00:17:02.068Z,99.90
2018-04-30T00:19:29.568Z,99.90
2018-04-30T00:21:57.059Z,99.90
2018-04-30T00:24:24.539Z,99.90
2018-04-30T00:26:52.081Z,99.90
2018-04-30T00:29:20.356Z,99.90
2018-04-30T00:31:48.595Z,99.90
2018-04-30T00:34:16.088Z,99.90
2018-04-30T00:36:44.363Z,99.90
2018-04-30T00:39:12.625Z,99.90
2018-04-30T00:41:40.200Z,99.90
2018-04-30T00:44:08.724Z,99.90
2018-04-30T00:46:36.215Z,99.90
2018-04-30T00:49:05.196Z,99.90
2018-04-30T00:51:32.692Z,99.90
2018-04-30T00:54:00.939Z,99.90
2018-04-30T00:56:28.436Z,99.90
2018-04-30T00:58:56.948Z,99.90
2018-04-30T01:01:24.708Z,99.90
2018-04-30T01:03:52.219Z,99.90
2018-04-30T01:06:19.691Z,99.90
2018-04-30T01:08:47.944Z,99.90
2018-04-30T01:11:15.763Z,99.90
2018-04-30T01:13:43.528Z,99.90
2018-04-30T01:16:11.028Z,99.90
2018-04-30T01:18:38.603Z,99.90
2018-04-30T01:21:06.860Z,99.90
2018-04-30T01:23:34.332Z,99.90
2018-04-30T01:26:02.592Z,99.90
2018-04-30T01:28:30.072Z,99.90
2018-04-30T01:30:59.113Z,99.90
2018-04-30T01:33:27.440Z,99.90
2018-04-30T01:35:55.683Z,99.90
2018-04-30T01:38:23.423Z,99.90
2018-04-30T01:40:50.900Z,99.90
2018-04-30T01:43:18.396Z,99.90
2018-04-30T01:45:46.636Z,99.90
2018-04-30T01:48:14.112Z,99.90
2018-04-30T01:50:41.831Z,99.90
2018-04-30T01:53:09.591Z,99.90
2018-04-30T01:55:37.305Z,99.90
2018-04-30T01:58:05.919Z,99.90
2018-04-30T02:00:33.463Z,99.90
2018-04-30T02:03:01.704Z,99.90
2018-04-30T02:05:29.294Z,99.90
2018-04-30T02:07:57.565Z,99.90
2018-04-30T02:10:25.804Z,99.90
2018-04-30T02:12:53.296Z,99.90
2018-04-30T02:15:21.543Z,99.90
2018-04-30T02:17:49.112Z,99.90
2018-04-30T02:20:16.591Z,99.90
2018-04-30T02:22:44.836Z,99.90
2018-04-30T02:25:12.420Z,99.90
2018-04-30T02:27:40.949Z,99.90
2018-04-30T02:30:08.712Z,99.90
2018-04-30T02:32:36.183Z,99.90
2018-04-30T02:35:03.676Z,99.90
2018-04-30T02:37:31.171Z,99.90
2018-04-30T02:39:58.645Z,99.90
2018-04-30T02:42:26.140Z,99.90
2018-04-30T02:44:53.684Z,99.90
2018-04-30T02:47:21.176Z,99.90
2018-04-30T02:49:49.415Z,99.90
2018-04-30T02:52:16.912Z,99.90
2018-04-30T02:54:45.428Z,99.90
2018-04-30T02:57:12.904Z,99.90
2018-04-30T02:59:40.428Z,99.90
2018-04-30T03:02:07.972Z,99.90
2018-04-30T03:04:35.408Z,99.90
2018-04-30T03:07:03.119Z,99.90
2018-04-30T03:09:30.628Z,99.90
2018-04-30T03:11:58.101Z,99.90
2018-04-30T03:14:26.344Z,99.90
2018-04-30T03:16:53.831Z,99.90
2018-04-30T03:19:22.068Z,99.90
2018-04-30T03:21:49.556Z,99.90
2018-04-30T03:24:17.800Z,99.90
2018-04-30T03:26:45.300Z,99.90
2018-04-30T03:29:13.535Z,99.90
2018-04-30T03:31:41.021Z,99.90
2018-04-30T03:34:09.275Z,99.90
2018-04-30T03:36:36.855Z,99.90
2018-04-30T03:39:05.128Z,99.90
2018-04-30T03:41:32.603Z,99.90
2018-04-30T03:44:00.868Z,99.90
2018-04-30T03:46:28.572Z,99.90
2018-04-30T03:48:56.335Z,99.90
2018-04-30T03:51:24.846Z,99.90
2018-04-30T03:53:52.609Z,99.90
2018-04-30T03:56:20.895Z,99.90
2018-04-30T03:58:48.723Z,99.90
2018-04-30T04:01:28.361Z,99.90
2018-04-30T04:04:07.781Z,99.90
2018-04-30T04:06:47.400Z,99.90
2018-04-30T04:09:15.675Z,99.90
2018-04-30T04:11:43.952Z,99.90
2018-04-30T04:14:12.616Z,99.90
2018-04-30T04:16:40.097Z,99.90
2018-04-30T04:19:08.620Z,99.90
2018-04-30T04:21:36.136Z,99.90
2018-04-30T04:24:04.663Z,99.90
2018-04-30T04:26:32.460Z,99.90
2018-04-30T04:28:59.937Z,99.90
2018-04-30T04:31:28.464Z,99.90
2018-04-30T04:33:55.948Z,99.90
2018-04-30T04:36:23.450Z,99.90
2018-04-30T04:38:50.991Z,99.90
2018-04-30T04:41:19.252Z,99.90
2018-04-30T04:43:47.378Z,99.90
2018-04-30T04:46:15.108Z,99.90
2018-04-30T04:48:43.815Z,99.90
2018-04-30T04:51:11.348Z,99.90
2018-04-30T04:53:39.612Z,99.90
2018-04-30T04:56:07.265Z,99.90
2018-04-30T04:58:35.584Z,99.90
2018-04-30T05:01:03.054Z,99.90
2018-04-30T05:03:30.619Z,99.90
2018-04-30T05:05:58.195Z,99.90
2018-04-30T05:08:25.949Z,99.90
2018-04-30T05:10:53.535Z,99.90
2018-04-30T05:13:21.363Z,99.90
2018-04-30T05:15:51.011Z,99.90
2018-04-30T05:18:19.471Z,99.90
2018-04-30T05:20:47.259Z,99.90
2018-04-30T05:23:14.755Z,99.90
2018-04-30T05:25:42.406Z,99.90
2018-04-30T05:28:11.024Z,99.90
2018-04-30T05:30:38.835Z,99.90
2018-04-30T05:33:06.461Z,99.90
2018-04-30T05:35:33.935Z,99.90
2018-04-30T05:38:01.525Z,99.90
2018-04-30T05:40:29.820Z,99.90
2018-04-30T05:42:57.293Z,99.90
2018-04-30T05:45:25.063Z,99.90
2018-04-30T05:47:52.551Z,99.90
2018-04-30T05:50:20.259Z,99.90
2018-04-30T05:52:47.838Z,99.90
2018-04-30T05:55:15.567Z,99.90
2018-04-30T05:57:43.820Z,99.90
2018-04-30T06:00:12.060Z,99.90
2018-04-30T06:02:40.839Z,99.90
2018-04-30T06:05:08.343Z,99.90
2018-04-30T06:07:36.674Z,99.90
2018-04-30T06:10:04.990Z,99.90
2018-04-30T06:12:32.816Z,99.90
2018-04-30T06:15:00.604Z,99.90
2018-04-30T06:17:29.862Z,99.90
2018-04-30T06:19:58.668Z,99.90
2018-04-30T06:22:27.505Z,99.90
2018-04-30T06:24:56.859Z,99.90
2018-04-30T06:27:24.347Z,99.90
2018-04-30T06:29:51.820Z,99.90
2018-04-30T06:32:20.080Z,99.90
2018-04-30T06:34:47.570Z,99.90
2018-04-30T06:37:15.832Z,99.90
2018-04-30T06:39:43.355Z,99.90
2018-04-30T06:42:11.012Z,99.90
2018-04-30T06:44:38.483Z,99.90
2018-04-30T06:47:06.228Z,99.90
2018-04-30T06:49:33.928Z,99.90
2018-04-30T06:52:01.656Z,99.90
2018-04-30T06:54:29.307Z,99.90
2018-04-30T06:56:56.784Z,99.90
2018-04-30T06:59:24.256Z,99.90
2018-04-30T07:01:52.096Z,99.90
2018-04-30T07:04:19.568Z,99.90
2018-04-30T07:06:47.059Z,99.90
2018-04-30T07:09:14.595Z,99.90
2018-04-30T07:11:42.044Z,99.90
2018-04-30T07:14:09.519Z,99.90
2018-04-30T07:16:37.244Z,99.90
2018-04-30T07:19:04.761Z,99.90
2018-04-30T07:21:33.039Z,99.90
2018-04-30T07:24:01.300Z,99.90
2018-04-30T07:26:28.787Z,99.90
2018-04-30T07:28:56.572Z,99.90
2018-04-30T07:31:24.060Z,99.90
2018-04-30T07:33:52.268Z,99.90
2018-04-30T07:36:20.524Z,99.90
2018-04-30T07:38:48.008Z,99.90
2018-04-30T07:41:16.521Z,99.90
2018-04-30T07:43:43.999Z,99.90
2018-04-30T07:46:11.495Z,99.90
2018-04-30T07:48:39.976Z,99.90
2018-04-30T07:51:08.224Z,99.90
2018-04-30T07:53:35.713Z,99.90
2018-04-30T07:56:03.196Z,99.90
2018-04-30T07:58:31.098Z,99.90
2018-04-30T08:00:59.064Z,95.00
2018-04-30T08:03:29.319Z,96.60
2018-04-30T08:05:58.775Z,94.30
2018-04-30T08:08:26.365Z,94.10
2018-04-30T08:10:55.113Z,90.90
2018-04-30T08:13:22.843Z,90.90
2018-04-30T08:15:51.099Z,84.10
2018-04-30T08:18:18.663Z,84.30
2018-04-30T08:20:46.156Z,81.70
2018-04-30T08:23:13.627Z,81.10
2018-04-30T08:25:41.292Z,80.90
2018-04-30T08:28:08.943Z,77.50
2018-04-30T08:30:37.115Z,81.10
2018-04-30T08:33:04.668Z,78.20
2018-04-30T08:35:32.423Z,73.40
2018-04-30T08:38:00.084Z,72.90
2018-04-30T08:40:28.345Z,75.50
2018-04-30T08:42:56.651Z,69.00
2018-04-30T08:45:24.175Z,69.00
2018-04-30T08:47:52.423Z,69.30
2018-04-30T08:50:20.604Z,69.20
2018-04-30T08:52:48.088Z,70.10
2018-04-30T08:55:16.699Z,69.70
2018-04-30T08:57:44.200Z,69.30
2018-04-30T09:00:11.719Z,69.90
2018-04-30T09:02:39.220Z,66.60
2018-04-30T09:05:06.826Z,67.20
2018-04-30T09:07:35.063Z,63.70
2018-04-30T09:10:02.904Z,63.90
2018-04-30T09:12:30.493Z,65.00
2018-04-30T09:14:58.858Z,64.30
2018-04-30T09:17:28.811Z,61.80
2018-04-30T09:19:56.324Z,61.80
2018-04-30T09:22:24.421Z,60.60
2018-04-30T09:24:52.683Z,60.80
2018-04-30T09:27:21.662Z,61.90
2018-04-30T09:29:49.155Z,62.40
2018-04-30T09:32:17.668Z,60.80
2018-04-30T09:34:45.148Z,60.70
2018-04-30T09:37:12.636Z,60.00
2018-04-30T09:39:40.912Z,55.40
2018-04-30T09:42:08.767Z,55.30
2018-04-30T09:44:36.704Z,56.60
2018-04-30T09:47:04.215Z,54.30
2018-04-30T09:49:32.464Z,55.90
2018-04-30T09:51:59.939Z,55.90
2018-04-30T09:54:28.465Z,49.80
2018-04-30T09:56:56.237Z,49.80
2018-04-30T09:59:24.020Z,55.00
2018-04-30T10:01:51.647Z,53.60
2018-04-30T10:04:19.148Z,52.80
2018-04-30T10:06:47.820Z,49.90
2018-04-30T10:09:15.356Z,47.10
2018-04-30T10:11:42.843Z,51.40
2018-04-30T10:14:10.594Z,50.40
2018-04-30T10:16:38.092Z,49.50
2018-04-30T10:19:06.614Z,49.00
2018-04-30T10:21:34.117Z,49.10
2018-04-30T10:24:02.353Z,48.20
2018-04-30T10:26:30.048Z,48.20
2018-04-30T10:28:57.914Z,48.80
2018-04-30T10:31:25.644Z,48.30
2018-04-30T10:33:53.632Z,47.40
2018-04-30T10:36:21.371Z,47.50
2018-04-30T10:38:48.863Z,51.80
2018-04-30T10:41:16.422Z,45.90
2018-04-30T10:43:43.895Z,46.30
2018-04-30T10:46:11.707Z,46.60
2018-04-30T10:48:39.184Z,43.00
2018-04-30T10:51:07.041Z,44.80
2018-04-30T10:53:34.695Z,45.80
2018-04-30T10:56:02.452Z,47.00
2018-04-30T10:58:30.233Z,43.40
2018-04-30T11:00:57.891Z,44.30
2018-04-30T11:03:25.400Z,44.50
2018-04-30T11:05:53.923Z,44.50
2018-04-30T11:08:22.145Z,44.40
2018-04-30T11:10:49.628Z,42.80
2018-04-30T11:13:17.175Z,41.50
2018-04-30T11:15:45.696Z,41.90
2018-04-30T11:18:13.191Z,42.00
2018-04-30T11:20:40.679Z,42.10
2018-04-30T11:23:08.991Z,43.90
2018-04-30T11:25:36.530Z,43.90
2018-04-30T11:28:04.182Z,43.90
2018-04-30T11:30:31.679Z,44.20
2018-04-30T11:32:59.156Z,46.10
2018-04-30T11:35:26.652Z,45.70
2018-04-30T11:37:54.341Z,47.20
2018-04-30T11:40:22.883Z,42.60
2018-04-30T11:42:51.149Z,43.10
2018-04-30T11:45:19.408Z,43.60
2018-04-30T11:47:47.199Z,43.50
2018-04-30T11:52:48.964Z,43.20
2018-04-30T11:55:17.212Z,41.80
2018-04-30T11:57:44.752Z,41.60
2018-04-30T12:00:12.545Z,41.70
2018-04-30T12:02:40.683Z,41.80
2018-04-30T12:05:08.195Z,42.40
2018-04-30T12:07:36.724Z,45.60
2018-04-30T12:10:04.407Z,45.60
2018-04-30T12:12:32.116Z,40.70
2018-04-30T12:15:00.167Z,43.10
2018-04-30T12:17:29.212Z,40.80
2018-04-30T12:19:56.997Z,40.90
2018-04-30T12:22:24.590Z,37.40
2018-04-30T12:24:52.210Z,41.40
2018-04-30T12:27:19.824Z,41.80
2018-04-30T12:29:48.060Z,40.70
2018-04-30T12:32:15.751Z,39.90
2018-04-30T12:34:43.643Z,40.50
2018-04-30T12:37:11.502Z,40.40
2018-04-30T12:39:39.048Z,41.50
2018-04-30T12:42:07.307Z,40.50
2018-04-30T12:44:39.820Z,37.80
2018-04-30T12:47:12.961Z,40.30
2018-04-30T12:49:43.182Z,39.20
2018-04-30T12:52:15.665Z,37.60
2018-04-30T12:54:48.098Z,37.50
2018-04-30T12:57:18.150Z,37.10
2018-04-30T12:59:49.260Z,39.50
2018-04-30T13:02:20.275Z,40.80
2018-04-30T13:04:51.691Z,40.80
2018-04-30T13:07:22.394Z,37.70
2018-04-30T13:09:52.463Z,37.70
2018-04-30T13:12:24.311Z,40.00
2018-04-30T13:14:55.268Z,39.90
2018-04-30T13:17:26.588Z,41.80
2018-04-30T13:19:56.464Z,40.10
2018-04-30T13:22:25.547Z,39.40
2018-04-30T13:24:58.482Z,39.80
2018-04-30T13:27:26.007Z,40.10
2018-04-30T13:29:53.479Z,38.40
2018-04-30T13:32:21.060Z,42.90
2018-04-30T13:34:49.439Z,40.90
2018-04-30T13:37:17.755Z,37.20
2018-04-30T13:39:45.959Z,40.40
2018-04-30T13:42:13.447Z,39.80
2018-04-30T13:44:41.703Z,42.10
2018-04-30T13:47:09.181Z,42.10
2018-04-30T13:49:39.391Z,45.50
2018-04-30T13:52:10.078Z,45.60
2018-04-30T13:54:37.794Z,44.40
2018-04-30T13:57:05.255Z,43.50
2018-04-30T13:59:33.773Z,42.80
2018-04-30T14:02:01.746Z,42.70
2018-04-30T14:04:34.811Z,43.80
2018-04-30T14:07:04.884Z,43.00
2018-04-30T14:09:32.504Z,42.60
2018-04-30T14:12:00.006Z,43.40
2018-04-30T14:14:27.485Z,44.00
2018-04-30T14:16:55.728Z,43.10
2018-04-30T14:19:23.224Z,43.00
2018-04-30T14:21:51.491Z,41.90
2018-04-30T14:24:19.747Z,43.20
2018-04-30T14:26:47.327Z,43.30
2018-04-30T14:29:15.851Z,42.50
2018-04-30T14:31:43.608Z,42.50
2018-04-30T14:34:11.045Z,43.00
2018-04-30T14:36:39.311Z,44.10
2018-04-30T14:39:07.557Z,43.80
2018-04-30T14:41:35.044Z,43.80
2018-04-30T14:44:03.564Z,43.60
2018-04-30T14:46:31.116Z,43.40
2018-04-30T14:48:58.639Z,43.80
2018-04-30T14:51:27.252Z,44.30
2018-04-30T14:53:54.668Z,44.30
2018-04-30T14:56:22.144Z,44.00
2018-04-30T14:58:50.399Z,46.00
2018-04-30T15:01:17.879Z,45.90
2018-04-30T15:03:46.135Z,48.30
2018-04-30T15:06:13.616Z,48.40
2018-04-30T15:08:41.095Z,51.00
2018-04-30T15:11:08.867Z,52.50
2018-04-30T15:13:36.344Z,54.60
2018-04-30T15:16:03.940Z,58.30
2018-04-30T15:18:32.183Z,61.00
2018-04-30T15:20:59.675Z,61.20
2018-04-30T15:23:27.920Z,59.30
2018-04-30T15:25:55.396Z,59.20
2018-04-30T15:28:23.924Z,61.30
2018-04-30T15:30:51.396Z,60.40
2018-04-30T15:33:18.889Z,59.20
2018-04-30T15:35:46.465Z,58.50
2018-04-30T15:38:14.730Z,60.90
2018-04-30T15:40:42.976Z,61.20
2018-04-30T15:43:10.464Z,61.10
2018-04-30T15:45:38.720Z,60.40
2018-04-30T15:48:06.965Z,60.00
2018-04-30T15:50:34.475Z,60.10
2018-04-30T15:53:02.864Z,60.40
2018-04-30T15:55:31.132Z,61.20
2018-04-30T15:57:59.407Z,60.90
2018-04-30T16:00:27.114Z,60.80
2018-04-30T16:02:54.624Z,61.40
2018-04-30T16:05:22.431Z,61.20
2018-04-30T16:07:50.195Z,60.90
2018-04-30T16:10:17.667Z,61.80
2018-04-30T16:12:45.163Z,60.60
2018-04-30T16:15:13.429Z,61.70
2018-04-30T16:17:41.147Z,61.70
2018-04-30T16:20:08.912Z,62.90
2018-04-30T16:22:36.396Z,63.70
2018-04-30T16:25:03.896Z,65.60
2018-04-30T16:27:32.135Z,67.70
2018-04-30T16:29:59.627Z,67.70
2018-04-30T16:32:27.893Z,68.60
2018-04-30T16:34:56.144Z,72.40
2018-04-30T16:37:23.631Z,72.40
2018-04-30T16:39:51.875Z,80.40
2018-04-30T16:42:20.879Z,79.00
2018-04-30T16:44:48.700Z,79.10
2018-04-30T16:47:16.317Z,87.10
2018-04-30T16:49:43.771Z,99.90
2018-04-30T16:52:12.017Z,99.90
2018-04-30T16:54:39.514Z,99.90
2018-04-30T16:57:07.831Z,99.90
2018-04-30T16:59:36.025Z,99.90
2018-04-30T17:02:03.495Z,99.90
2018-04-30T17:04:31.219Z,99.90
2018-04-30T17:06:58.984Z,99.90
2018-04-30T17:09:26.456Z,99.90
2018-04-30T17:11:53.951Z,99.90
2018-04-30T17:14:22.195Z,99.90
2018-04-30T17:16:49.692Z,99.90
2018-04-30T17:19:17.248Z,99.90
2018-04-30T17:21:45.508Z,99.90
2018-04-30T17:24:12.993Z,99.90
2018-04-30T17:26:40.787Z,99.90
2018-04-30T17:29:08.306Z,99.90
2018-04-30T17:31:36.832Z,99.90
2018-04-30T17:34:04.325Z,99.90
2018-04-30T17:36:31.803Z,99.90
2018-04-30T17:39:00.044Z,99.90
2018-04-30T17:41:27.540Z,99.90
2018-04-30T17:43:55.787Z,99.90
2018-04-30T17:46:23.295Z,99.90
2018-04-30T17:48:50.769Z,99.90
2018-04-30T17:51:18.260Z,99.90
2018-04-30T17:53:45.787Z,99.90
2018-04-30T17:56:13.992Z,99.90
2018-04-30T17:58:42.357Z,99.90
2018-04-30T18:01:09.983Z,99.90
2018-04-30T18:03:37.557Z,99.90
2018-04-30T18:06:05.072Z,99.90
2018-04-30T18:08:33.592Z,99.90
2018-04-30T18:11:01.082Z,99.90
2018-04-30T18:13:28.572Z,99.90
2018-04-30T18:15:56.827Z,99.90
2018-04-30T18:18:24.304Z,99.90
2018-04-30T18:20:52.923Z,99.90
2018-04-30T18:23:20.391Z,99.90
2018-04-30T18:25:47.899Z,99.90
2018-04-30T18:28:16.147Z,99.90
2018-04-30T18:30:44.448Z,99.90
2018-04-30T18:33:12.765Z,99.90
2018-04-30T18:35:40.984Z,99.90
2018-04-30T18:38:09.245Z,99.90
2018-04-30T18:40:36.719Z,99.90
2018-04-30T18:43:04.217Z,99.90
2018-04-30T18:45:31.695Z,99.90
2018-04-30T18:47:59.171Z,99.90
2018-04-30T18:50:26.756Z,99.90
2018-04-30T18:52:54.324Z,99.90
2018-04-30T18:55:22.584Z,99.90
2018-04-30T18:57:50.848Z,99.90
2018-04-30T19:00:18.355Z,99.90
2018-04-30T19:02:46.135Z,99.90
2018-04-30T19:05:13.835Z,99.90
2018-04-30T19:07:41.324Z,99.90
2018-04-30T19:10:09.567Z,99.90
2018-04-30T19:12:37.067Z,99.90
2018-04-30T19:15:04.543Z,99.90
2018-04-30T19:17:32.039Z,99.90
2018-04-30T19:20:01.024Z,99.90
2018-04-30T19:22:28.514Z,99.90
2018-04-30T19:24:56.795Z,99.90
2018-04-30T19:27:25.036Z,99.90
2018-04-30T19:29:52.767Z,99.90
2018-04-30T19:32:20.252Z,99.90
2018-04-30T19:34:48.023Z,99.90
2018-04-30T19:37:16.507Z,99.90
2018-04-30T19:39:43.976Z,99.90
2018-04-30T19:42:11.792Z,99.90
2018-04-30T19:44:39.559Z,99.90
2018-04-30T19:47:07.120Z,99.90
2018-04-30T19:49:34.612Z,99.90
2018-04-30T19:52:02.876Z,99.90
2018-04-30T19:54:30.348Z,99.90
2018-04-30T19:56:57.828Z,99.90
2018-04-30T19:59:26.088Z,99.90
2018-04-30T20:01:53.694Z,99.90
2018-04-30T20:04:21.236Z,99.90
2018-04-30T20:06:48.764Z,99.90
2018-04-30T20:09:17.036Z,99.90
2018-04-30T20:11:44.545Z,99.90
2018-04-30T20:14:12.077Z,99.90
2018-04-30T20:16:39.639Z,99.90
2018-04-30T20:19:07.918Z,99.90
2018-04-30T20:21:35.938Z,99.90
2018-04-30T20:24:03.465Z,99.90
2018-04-30T20:26:31.028Z,99.90
2018-04-30T20:28:58.548Z,99.90
2018-04-30T20:31:26.790Z,99.90
2018-04-30T20:33:54.344Z,99.90
2018-04-30T20:36:22.661Z,99.90
2018-04-30T20:38:50.924Z,99.90
2018-04-30T20:41:18.461Z,99.90
2018-04-30T20:43:45.961Z,99.90
2018-04-30T20:46:14.204Z,99.90
2018-04-30T20:48:42.503Z,99.90
2018-04-30T20:51:10.775Z,99.90
2018-04-30T20:53:39.022Z,99.90
2018-04-30T20:56:06.515Z,99.90
2018-04-30T20:58:35.384Z,99.90
2018-04-30T21:01:02.879Z,99.90
2018-04-30T21:03:30.663Z,99.90
2018-04-30T21:05:58.145Z,99.90
2018-04-30T21:08:25.864Z,99.90
2018-04-30T21:10:53.396Z,99.90
2018-04-30T21:13:21.660Z,99.90
2018-04-30T21:15:50.642Z,99.90
2018-04-30T21:18:18.157Z,99.90
2018-04-30T21:20:45.680Z,99.90
2018-04-30T21:23:13.956Z,99.90
2018-04-30T21:25:42.216Z,99.90
2018-04-30T21:28:10.528Z,99.90
2018-04-30T21:30:38.148Z,99.90
2018-04-30T21:33:05.776Z,99.90
2018-04-30T21:35:33.275Z,99.90
2018-04-30T21:38:00.843Z,99.90
2018-04-30T21:40:28.412Z,99.90
2018-04-30T21:42:56.683Z,99.90
2018-04-30T21:45:24.964Z,99.90
2018-04-30T21:47:53.216Z,99.90
2018-04-30T21:50:21.459Z,99.90
2018-04-30T21:52:48.956Z,99.90
2018-04-30T21:55:16.447Z,99.90
2018-04-30T21:57:43.924Z,99.90
2018-04-30T22:00:11.439Z,99.90
2018-04-30T22:02:39.679Z,99.90
2018-04-30T22:05:07.164Z,99.90
2018-04-30T22:07:34.639Z,99.90
2018-04-30T22:10:02.184Z,99.90
2018-04-30T22:12:29.655Z,99.90
2018-04-30T22:14:57.896Z,99.90
2018-04-30T22:17:25.623Z,99.90
2018-04-30T22:19:53.388Z,99.90
2018-04-30T22:22:20.883Z,99.90
2018-04-30T22:24:48.356Z,99.90
2018-04-30T22:27:15.928Z,99.90
2018-04-30T22:29:44.172Z,99.90
2018-04-30T22:32:11.696Z,99.90
2018-04-30T22:34:39.210Z,99.90
2018-04-30T22:37:07.452Z,99.90
2018-04-30T22:39:35.047Z,99.90
2018-04-30T22:42:03.292Z,99.90
2018-04-30T22:44:30.784Z,99.90
2018-04-30T22:46:59.023Z,99.90
2018-04-30T22:49:26.495Z,99.90
2018-04-30T22:51:54.074Z,99.90
2018-04-30T22:54:22.316Z,99.90
2018-04-30T22:56:49.908Z,99.90
2018-04-30T22:59:18.427Z,99.90
2018-04-30T23:01:45.919Z,99.90
2018-04-30T23:04:13.392Z,99.90
2018-04-30T23:06:40.872Z,99.90
2018-04-30T23:09:08.663Z,99.90
2018-04-30T23:11:36.136Z,99.90
2018-04-30T23:14:03.672Z,99.90
2018-04-30T23:16:31.196Z,99.90
2018-04-30T23:18:59.464Z,99.90
2018-04-30T23:21:26.935Z,99.90
2018-04-30T23:23:55.172Z,99.90
2018-04-30T23:26:22.892Z,99.90
2018-04-30T23:28:50.587Z,99.90
2018-04-30T23:31:18.111Z,99.90
2018-04-30T23:33:45.583Z,99.90
2018-04-30T23:36:13.079Z,99.90
2018-04-30T23:38:40.555Z,99.90
2018-04-30T23:41:08.031Z,99.90
2018-04-30T23:43:35.572Z,99.90
2018-04-30T23:46:04.104Z,99.90
2018-04-30T23:48:31.864Z,99.90
2018-04-30T23:50:59.627Z,99.90
2018-04-30T23:53:27.100Z,99.90
2018-04-30T23:55:54.589Z,99.90
2018-04-30T23:58:22.308Z,99.90
